sensor_id;sensor_type;location;lat;lon;timestamp;P1;durP1;ratioP1;P2;durP2;ratioP2
20541;SDS011;10429;50.956;9.786;2022-10-17T00:00:32;55.83;;;9.50;;
20541;SDS011;10429;50.956;9.786;2022-10-17T00:02:59;27.63;;;9.07;;
20541;SDS011;10429;50.956;9.786;2022-10-17T00:05:25;23.77;;;9.10;;
20541;SDS011;10429;50.956;9.786;2022-10-17T00:07:51;41.77;;;8.70;;
20541;SDS011;10429;50.956;9.786;2022-10-17T00:10:18;40.10;;;8.97;;
20541;SDS011;10429;50.956;9.786;2022-10-17T00:12:44;52.83;;;9.73;;
20541;SDS011;10429;50.956;9.786;2022-10-17T00:15:10;52.67;;;9.77;;
20541;SDS011;10429;50.956;9.786;2022-10-17T00:17:39;65.90;;;9.87;;
20541;SDS011;10429;50.956;9.786;2022-10-17T00:20:06;65.07;;;9.73;;
20541;SDS011;10429;50.956;9.786;2022-10-17T00:22:32;56.43;;;9.13;;
20541;SDS011;10429;50.956;9.786;2022-10-17T00:24:58;94.57;;;9.77;;
20541;SDS011;10429;50.956;9.786;2022-10-17T00:27:24;84.43;;;9.80;;
20541;SDS011;10429;50.956;9.786;2022-10-17T00:29:50;122.83;;;11.13;;
20541;SDS011;10429;50.956;9.786;2022-10-17T00:32:17;73.87;;;10.23;;
20541;SDS011;10429;50.956;9.786;2022-10-17T00:34:43;74.70;;;9.70;;
20541;SDS011;10429;50.956;9.786;2022-10-17T00:37:09;72.10;;;9.90;;
20541;SDS011;10429;50.956;9.786;2022-10-17T00:39:36;46.80;;;9.90;;
20541;SDS011;10429;50.956;9.786;2022-10-17T00:42:02;38.77;;;9.60;;
20541;SDS011;10429;50.956;9.786;2022-10-17T00:46:54;34.47;;;8.97;;
20541;SDS011;10429;50.956;9.786;2022-10-17T00:49:20;48.53;;;8.37;;
20541;SDS011;10429;50.956;9.786;2022-10-17T00:51:48;68.80;;;8.37;;
20541;SDS011;10429;50.956;9.786;2022-10-17T00:54:16;40.23;;;8.17;;
20541;SDS011;10429;50.956;9.786;2022-10-17T00:56:44;59.73;;;8.20;;
20541;SDS011;10429;50.956;9.786;2022-10-17T00:59:11;41.97;;;7.10;;
20541;SDS011;10429;50.956;9.786;2022-10-17T01:01:39;45.53;;;7.87;;
20541;SDS011;10429;50.956;9.786;2022-10-17T01:04:06;42.63;;;8.00;;
20541;SDS011;10429;50.956;9.786;2022-10-17T01:06:34;41.27;;;7.57;;
20541;SDS011;10429;50.956;9.786;2022-10-17T01:09:00;27.67;;;8.00;;
20541;SDS011;10429;50.956;9.786;2022-10-17T01:12:13;26.33;;;7.90;;
20541;SDS011;10429;50.956;9.786;2022-10-17T01:16:51;29.13;;;7.97;;
20541;SDS011;10429;50.956;9.786;2022-10-17T01:42:36;35.80;;;8.60;;
20541;SDS011;10429;50.956;9.786;2022-10-17T01:45:19;36.60;;;8.27;;
20541;SDS011;10429;50.956;9.786;2022-10-17T01:47:46;47.57;;;8.30;;
20541;SDS011;10429;50.956;9.786;2022-10-17T01:50:22;40.57;;;8.03;;
20541;SDS011;10429;50.956;9.786;2022-10-17T01:52:51;38.70;;;8.17;;
20541;SDS011;10429;50.956;9.786;2022-10-17T01:55:28;56.00;;;7.77;;
20541;SDS011;10429;50.956;9.786;2022-10-17T01:57:57;39.27;;;6.70;;
20541;SDS011;10429;50.956;9.786;2022-10-17T02:00:25;47.50;;;7.13;;
20541;SDS011;10429;50.956;9.786;2022-10-17T02:02:54;53.60;;;7.00;;
20541;SDS011;10429;50.956;9.786;2022-10-17T02:05:23;34.63;;;7.20;;
20541;SDS011;10429;50.956;9.786;2022-10-17T02:07:49;51.43;;;7.67;;
20541;SDS011;10429;50.956;9.786;2022-10-17T02:10:18;78.73;;;8.10;;
20541;SDS011;10429;50.956;9.786;2022-10-17T02:12:48;45.63;;;7.83;;
20541;SDS011;10429;50.956;9.786;2022-10-17T02:21:14;61.50;;;7.83;;
20541;SDS011;10429;50.956;9.786;2022-10-17T02:23:26;61.37;;;7.50;;
20541;SDS011;10429;50.956;9.786;2022-10-17T02:28:41;57.03;;;6.60;;
20541;SDS011;10429;50.956;9.786;2022-10-17T02:31:12;51.53;;;7.33;;
20541;SDS011;10429;50.956;9.786;2022-10-17T02:33:44;53.70;;;6.70;;
20541;SDS011;10429;50.956;9.786;2022-10-17T02:36:17;97.70;;;7.50;;
20541;SDS011;10429;50.956;9.786;2022-10-17T02:38:45;94.93;;;8.00;;
20541;SDS011;10429;50.956;9.786;2022-10-17T02:41:12;114.13;;;9.13;;
20541;SDS011;10429;50.956;9.786;2022-10-17T02:43:40;150.20;;;9.47;;
20541;SDS011;10429;50.956;9.786;2022-10-17T02:46:09;98.63;;;7.50;;
20541;SDS011;10429;50.956;9.786;2022-10-17T02:48:37;166.43;;;9.27;;
20541;SDS011;10429;50.956;9.786;2022-10-17T02:54:00;50.13;;;6.20;;
20541;SDS011;10429;50.956;9.786;2022-10-17T02:56:30;79.00;;;6.83;;
20541;SDS011;10429;50.956;9.786;2022-10-17T02:58:59;80.03;;;6.97;;
20541;SDS011;10429;50.956;9.786;2022-10-17T03:01:28;100.33;;;6.93;;
20541;SDS011;10429;50.956;9.786;2022-10-17T03:04:05;68.00;;;6.57;;
20541;SDS011;10429;50.956;9.786;2022-10-17T03:06:31;72.83;;;6.10;;
20541;SDS011;10429;50.956;9.786;2022-10-17T03:08:57;84.53;;;7.40;;
20541;SDS011;10429;50.956;9.786;2022-10-17T03:11:23;123.23;;;7.53;;
20541;SDS011;10429;50.956;9.786;2022-10-17T03:13:49;125.93;;;7.53;;
20541;SDS011;10429;50.956;9.786;2022-10-17T03:16:17;91.10;;;6.97;;
20541;SDS011;10429;50.956;9.786;2022-10-17T03:18:43;104.33;;;7.40;;
20541;SDS011;10429;50.956;9.786;2022-10-17T03:21:09;88.20;;;7.00;;
20541;SDS011;10429;50.956;9.786;2022-10-17T03:23:35;95.80;;;6.83;;
20541;SDS011;10429;50.956;9.786;2022-10-17T03:26:02;123.27;;;8.20;;
20541;SDS011;10429;50.956;9.786;2022-10-17T03:28:28;91.50;;;7.00;;
20541;SDS011;10429;50.956;9.786;2022-10-17T03:30:54;94.47;;;7.40;;
20541;SDS011;10429;50.956;9.786;2022-10-17T03:33:20;78.67;;;7.20;;
20541;SDS011;10429;50.956;9.786;2022-10-17T03:35:46;63.57;;;6.90;;
20541;SDS011;10429;50.956;9.786;2022-10-17T03:38:12;38.73;;;6.83;;
20541;SDS011;10429;50.956;9.786;2022-10-17T03:40:38;46.83;;;6.67;;
20541;SDS011;10429;50.956;9.786;2022-10-17T03:43:04;44.20;;;6.60;;
20541;SDS011;10429;50.956;9.786;2022-10-17T03:45:30;70.00;;;7.20;;
20541;SDS011;10429;50.956;9.786;2022-10-17T03:47:59;64.93;;;7.47;;
20541;SDS011;10429;50.956;9.786;2022-10-17T03:50:25;81.47;;;8.67;;
20541;SDS011;10429;50.956;9.786;2022-10-17T03:52:51;40.17;;;6.87;;
20541;SDS011;10429;50.956;9.786;2022-10-17T03:55:17;52.00;;;6.67;;
20541;SDS011;10429;50.956;9.786;2022-10-17T03:57:43;84.50;;;7.47;;
20541;SDS011;10429;50.956;9.786;2022-10-17T04:00:09;34.70;;;6.00;;
20541;SDS011;10429;50.956;9.786;2022-10-17T04:02:35;45.07;;;5.73;;
20541;SDS011;10429;50.956;9.786;2022-10-17T04:05:02;46.73;;;6.37;;
20541;SDS011;10429;50.956;9.786;2022-10-17T04:07:28;34.07;;;5.60;;
20541;SDS011;10429;50.956;9.786;2022-10-17T04:09:54;28.47;;;5.77;;
20541;SDS011;10429;50.956;9.786;2022-10-17T04:12:20;48.70;;;5.87;;
20541;SDS011;10429;50.956;9.786;2022-10-17T04:14:48;60.57;;;6.10;;
20541;SDS011;10429;50.956;9.786;2022-10-17T04:17:14;75.53;;;6.50;;
20541;SDS011;10429;50.956;9.786;2022-10-17T04:19:42;67.20;;;5.90;;
20541;SDS011;10429;50.956;9.786;2022-10-17T04:22:08;53.60;;;6.23;;
20541;SDS011;10429;50.956;9.786;2022-10-17T04:24:34;34.93;;;6.07;;
20541;SDS011;10429;50.956;9.786;2022-10-17T04:27:00;49.50;;;6.40;;
20541;SDS011;10429;50.956;9.786;2022-10-17T04:29:26;62.87;;;6.43;;
20541;SDS011;10429;50.956;9.786;2022-10-17T04:31:52;40.87;;;6.10;;
20541;SDS011;10429;50.956;9.786;2022-10-17T04:34:20;28.00;;;5.47;;
20541;SDS011;10429;50.956;9.786;2022-10-17T04:36:46;35.77;;;6.20;;
20541;SDS011;10429;50.956;9.786;2022-10-17T04:39:12;35.17;;;5.93;;
20541;SDS011;10429;50.956;9.786;2022-10-17T04:41:40;23.60;;;5.93;;
20541;SDS011;10429;50.956;9.786;2022-10-17T04:44:09;28.70;;;5.40;;
20541;SDS011;10429;50.956;9.786;2022-10-17T04:46:35;38.70;;;5.67;;
20541;SDS011;10429;50.956;9.786;2022-10-17T04:49:01;49.07;;;6.17;;
20541;SDS011;10429;50.956;9.786;2022-10-17T04:51:27;41.07;;;6.07;;
20541;SDS011;10429;50.956;9.786;2022-10-17T04:53:53;48.50;;;5.93;;
20541;SDS011;10429;50.956;9.786;2022-10-17T04:56:22;19.90;;;5.10;;
20541;SDS011;10429;50.956;9.786;2022-10-17T04:58:49;12.50;;;4.57;;
20541;SDS011;10429;50.956;9.786;2022-10-17T05:01:16;4.67;;;4.27;;
20541;SDS011;10429;50.956;9.786;2022-10-17T05:03:42;10.17;;;4.20;;
20541;SDS011;10429;50.956;9.786;2022-10-17T05:06:09;11.07;;;4.50;;
20541;SDS011;10429;50.956;9.786;2022-10-17T05:08:36;16.70;;;3.90;;
20541;SDS011;10429;50.956;9.786;2022-10-17T05:11:05;39.33;;;5.70;;
20541;SDS011;10429;50.956;9.786;2022-10-17T05:13:39;60.87;;;6.10;;
20541;SDS011;10429;50.956;9.786;2022-10-17T05:16:05;76.07;;;9.10;;
20541;SDS011;10429;50.956;9.786;2022-10-17T05:18:31;101.00;;;7.30;;
20541;SDS011;10429;50.956;9.786;2022-10-17T05:21:01;140.60;;;7.70;;
20541;SDS011;10429;50.956;9.786;2022-10-17T05:23:28;103.97;;;7.13;;
20541;SDS011;10429;50.956;9.786;2022-10-17T05:25:54;100.47;;;7.40;;
20541;SDS011;10429;50.956;9.786;2022-10-17T05:28:21;80.93;;;6.27;;
20541;SDS011;10429;50.956;9.786;2022-10-17T05:30:47;51.23;;;6.70;;
20541;SDS011;10429;50.956;9.786;2022-10-17T05:33:18;25.27;;;7.33;;
20541;SDS011;10429;50.956;9.786;2022-10-17T05:35:44;44.97;;;6.17;;
20541;SDS011;10429;50.956;9.786;2022-10-17T05:38:10;18.87;;;5.60;;
20541;SDS011;10429;50.956;9.786;2022-10-17T05:40:36;13.30;;;5.57;;
20541;SDS011;10429;50.956;9.786;2022-10-17T05:43:03;16.47;;;5.67;;
20541;SDS011;10429;50.956;9.786;2022-10-17T05:45:29;18.53;;;6.10;;
20541;SDS011;10429;50.956;9.786;2022-10-17T05:47:58;6.00;;;4.67;;
20541;SDS011;10429;50.956;9.786;2022-10-17T05:50:24;16.83;;;5.43;;
20541;SDS011;10429;50.956;9.786;2022-10-17T05:52:53;10.57;;;6.37;;
20541;SDS011;10429;50.956;9.786;2022-10-17T05:55:19;10.17;;;6.07;;
20541;SDS011;10429;50.956;9.786;2022-10-17T05:57:45;6.63;;;5.93;;
20541;SDS011;10429;50.956;9.786;2022-10-17T06:00:11;6.50;;;5.90;;
20541;SDS011;10429;50.956;9.786;2022-10-17T06:02:38;6.53;;;5.93;;
20541;SDS011;10429;50.956;9.786;2022-10-17T06:05:04;5.83;;;5.03;;
20541;SDS011;10429;50.956;9.786;2022-10-17T06:07:30;6.07;;;5.37;;
20541;SDS011;10429;50.956;9.786;2022-10-17T06:09:56;6.60;;;5.70;;
20541;SDS011;10429;50.956;9.786;2022-10-17T06:12:23;18.47;;;5.70;;
20541;SDS011;10429;50.956;9.786;2022-10-17T06:14:49;30.70;;;6.30;;
20541;SDS011;10429;50.956;9.786;2022-10-17T06:17:15;25.37;;;6.33;;
20541;SDS011;10429;50.956;9.786;2022-10-17T06:19:41;24.73;;;6.03;;
20541;SDS011;10429;50.956;9.786;2022-10-17T06:22:08;19.07;;;5.77;;
20541;SDS011;10429;50.956;9.786;2022-10-17T06:24:34;32.87;;;7.07;;
20541;SDS011;10429;50.956;9.786;2022-10-17T06:27:00;41.37;;;6.90;;
20541;SDS011;10429;50.956;9.786;2022-10-17T06:29:29;21.97;;;6.63;;
20541;SDS011;10429;50.956;9.786;2022-10-17T06:31:55;6.90;;;6.20;;
20541;SDS011;10429;50.956;9.786;2022-10-17T06:34:23;6.70;;;5.67;;
20541;SDS011;10429;50.956;9.786;2022-10-17T06:36:52;8.87;;;7.63;;
20541;SDS011;10429;50.956;9.786;2022-10-17T06:39:18;10.03;;;7.07;;
20541;SDS011;10429;50.956;9.786;2022-10-17T06:41:44;7.40;;;6.70;;
20541;SDS011;10429;50.956;9.786;2022-10-17T06:44:12;8.07;;;7.27;;
20541;SDS011;10429;50.956;9.786;2022-10-17T06:46:38;10.33;;;6.53;;
20541;SDS011;10429;50.956;9.786;2022-10-17T06:49:05;8.63;;;6.23;;
20541;SDS011;10429;50.956;9.786;2022-10-17T06:51:35;8.50;;;5.60;;
20541;SDS011;10429;50.956;9.786;2022-10-17T06:54:02;6.13;;;5.50;;
20541;SDS011;10429;50.956;9.786;2022-10-17T06:56:28;5.23;;;4.73;;
20541;SDS011;10429;50.956;9.786;2022-10-17T06:58:54;5.40;;;4.90;;
20541;SDS011;10429;50.956;9.786;2022-10-17T07:01:23;6.10;;;4.40;;
20541;SDS011;10429;50.956;9.786;2022-10-17T07:03:49;7.17;;;4.00;;
20541;SDS011;10429;50.956;9.786;2022-10-17T07:06:16;5.00;;;4.27;;
20541;SDS011;10429;50.956;9.786;2022-10-17T07:08:43;4.20;;;3.80;;
20541;SDS011;10429;50.956;9.786;2022-10-17T07:11:11;4.43;;;4.03;;
20541;SDS011;10429;50.956;9.786;2022-10-17T07:13:39;6.30;;;4.30;;
20541;SDS011;10429;50.956;9.786;2022-10-17T07:16:05;4.60;;;4.20;;
20541;SDS011;10429;50.956;9.786;2022-10-17T07:18:32;6.87;;;4.50;;
20541;SDS011;10429;50.956;9.786;2022-10-17T07:20:58;5.23;;;4.77;;
20541;SDS011;10429;50.956;9.786;2022-10-17T07:23:27;9.63;;;8.83;;
20541;SDS011;10429;50.956;9.786;2022-10-17T07:26:00;6.40;;;4.50;;
20541;SDS011;10429;50.956;9.786;2022-10-17T07:28:27;8.13;;;4.40;;
20541;SDS011;10429;50.956;9.786;2022-10-17T07:30:53;4.40;;;4.00;;
20541;SDS011;10429;50.956;9.786;2022-10-17T07:33:19;7.80;;;3.93;;
20541;SDS011;10429;50.956;9.786;2022-10-17T07:35:45;4.93;;;4.37;;
20541;SDS011;10429;50.956;9.786;2022-10-17T07:38:11;3.93;;;3.53;;
20541;SDS011;10429;50.956;9.786;2022-10-17T07:40:37;4.30;;;3.90;;
20541;SDS011;10429;50.956;9.786;2022-10-17T07:43:03;5.97;;;4.33;;
20541;SDS011;10429;50.956;9.786;2022-10-17T07:45:31;6.93;;;4.37;;
20541;SDS011;10429;50.956;9.786;2022-10-17T07:47:57;6.23;;;4.67;;
20541;SDS011;10429;50.956;9.786;2022-10-17T07:50:24;5.93;;;4.50;;
20541;SDS011;10429;50.956;9.786;2022-10-17T07:52:50;5.60;;;4.27;;
20541;SDS011;10429;50.956;9.786;2022-10-17T07:55:16;4.13;;;3.73;;
20541;SDS011;10429;50.956;9.786;2022-10-17T07:57:42;8.10;;;4.80;;
20541;SDS011;10429;50.956;9.786;2022-10-17T08:00:08;7.80;;;6.40;;
20541;SDS011;10429;50.956;9.786;2022-10-17T08:02:34;6.53;;;3.80;;
20541;SDS011;10429;50.956;9.786;2022-10-17T08:05:00;3.97;;;3.40;;
20541;SDS011;10429;50.956;9.786;2022-10-17T08:07:26;4.73;;;3.70;;
20541;SDS011;10429;50.956;9.786;2022-10-17T08:09:52;5.60;;;3.60;;
20541;SDS011;10429;50.956;9.786;2022-10-17T08:12:18;4.50;;;3.53;;
20541;SDS011;10429;50.956;9.786;2022-10-17T08:14:46;4.37;;;3.90;;
20541;SDS011;10429;50.956;9.786;2022-10-17T08:17:17;4.33;;;3.93;;
20541;SDS011;10429;50.956;9.786;2022-10-17T08:19:43;5.60;;;3.70;;
20541;SDS011;10429;50.956;9.786;2022-10-17T08:22:11;3.50;;;3.20;;
20541;SDS011;10429;50.956;9.786;2022-10-17T08:24:37;3.87;;;3.33;;
20541;SDS011;10429;50.956;9.786;2022-10-17T08:27:03;4.90;;;3.50;;
20541;SDS011;10429;50.956;9.786;2022-10-17T08:29:35;5.43;;;3.57;;
20541;SDS011;10429;50.956;9.786;2022-10-17T08:32:04;3.83;;;3.53;;
20541;SDS011;10429;50.956;9.786;2022-10-17T08:34:33;4.90;;;3.60;;
20541;SDS011;10429;50.956;9.786;2022-10-17T08:36:59;5.13;;;3.20;;
20541;SDS011;10429;50.956;9.786;2022-10-17T08:39:28;3.70;;;3.33;;
20541;SDS011;10429;50.956;9.786;2022-10-17T08:42:02;4.10;;;3.20;;
20541;SDS011;10429;50.956;9.786;2022-10-17T08:46:57;3.87;;;3.33;;
20541;SDS011;10429;50.956;9.786;2022-10-17T08:51:54;4.20;;;3.50;;
20541;SDS011;10429;50.956;9.786;2022-10-17T08:54:28;7.07;;;3.60;;
20541;SDS011;10429;50.956;9.786;2022-10-17T08:56:58;7.00;;;4.43;;
20541;SDS011;10429;50.956;9.786;2022-10-17T08:59:27;7.50;;;3.90;;
20541;SDS011;10429;50.956;9.786;2022-10-17T09:02:13;6.90;;;5.10;;
20541;SDS011;10429;50.956;9.786;2022-10-17T09:07:34;3.87;;;2.97;;
20541;SDS011;10429;50.956;9.786;2022-10-17T09:18:28;4.97;;;3.00;;
20541;SDS011;10429;50.956;9.786;2022-10-17T09:23:17;3.40;;;3.00;;
20541;SDS011;10429;50.956;9.786;2022-10-17T09:25:48;4.63;;;2.93;;
20541;SDS011;10429;50.956;9.786;2022-10-17T09:28:26;4.70;;;3.23;;
20541;SDS011;10429;50.956;9.786;2022-10-17T09:30:58;3.93;;;3.00;;
20541;SDS011;10429;50.956;9.786;2022-10-17T09:33:26;6.70;;;3.40;;
20541;SDS011;10429;50.956;9.786;2022-10-17T09:35:54;3.00;;;2.70;;
20541;SDS011;10429;50.956;9.786;2022-10-17T09:38:21;26.77;;;3.83;;
20541;SDS011;10429;50.956;9.786;2022-10-17T09:40:58;5.40;;;3.10;;
20541;SDS011;10429;50.956;9.786;2022-10-17T09:43:27;4.07;;;3.10;;
20541;SDS011;10429;50.956;9.786;2022-10-17T09:46:16;5.07;;;3.47;;
20541;SDS011;10429;50.956;9.786;2022-10-17T09:48:46;5.60;;;3.20;;
20541;SDS011;10429;50.956;9.786;2022-10-17T09:51:13;5.27;;;3.10;;
20541;SDS011;10429;50.956;9.786;2022-10-17T09:53:44;4.77;;;3.13;;
20541;SDS011;10429;50.956;9.786;2022-10-17T09:56:13;7.03;;;3.10;;
20541;SDS011;10429;50.956;9.786;2022-10-17T09:58:47;4.07;;;2.87;;
20541;SDS011;10429;50.956;9.786;2022-10-17T10:01:21;3.53;;;2.97;;
20541;SDS011;10429;50.956;9.786;2022-10-17T10:03:48;7.10;;;3.40;;
20541;SDS011;10429;50.956;9.786;2022-10-17T10:06:32;6.37;;;2.73;;
20541;SDS011;10429;50.956;9.786;2022-10-17T10:08:58;4.70;;;2.83;;
20541;SDS011;10429;50.956;9.786;2022-10-17T10:14:14;8.57;;;2.80;;
20541;SDS011;10429;50.956;9.786;2022-10-17T10:16:42;6.73;;;3.17;;
20541;SDS011;10429;50.956;9.786;2022-10-17T10:19:20;5.63;;;2.30;;
20541;SDS011;10429;50.956;9.786;2022-10-17T10:21:53;3.37;;;2.57;;
20541;SDS011;10429;50.956;9.786;2022-10-17T10:24:20;4.70;;;2.23;;
20541;SDS011;10429;50.956;9.786;2022-10-17T10:26:47;4.87;;;2.20;;
20541;SDS011;10429;50.956;9.786;2022-10-17T10:32:09;2.80;;;2.40;;
20541;SDS011;10429;50.956;9.786;2022-10-17T10:34:40;2.67;;;2.33;;
20541;SDS011;10429;50.956;9.786;2022-10-17T10:37:17;6.20;;;2.13;;
20541;SDS011;10429;50.956;9.786;2022-10-17T10:39:46;3.47;;;2.30;;
20541;SDS011;10429;50.956;9.786;2022-10-17T10:42:19;3.77;;;2.30;;
20541;SDS011;10429;50.956;9.786;2022-10-17T10:44:46;5.87;;;2.23;;
20541;SDS011;10429;50.956;9.786;2022-10-17T10:47:33;5.57;;;2.27;;
20541;SDS011;10429;50.956;9.786;2022-10-17T10:50:16;4.67;;;2.10;;
20541;SDS011;10429;50.956;9.786;2022-10-17T11:01:06;3.77;;;2.17;;
20541;SDS011;10429;50.956;9.786;2022-10-17T11:05:59;5.07;;;2.97;;
20541;SDS011;10429;50.956;9.786;2022-10-17T11:08:29;2.97;;;2.00;;
20541;SDS011;10429;50.956;9.786;2022-10-17T11:13:46;3.53;;;2.00;;
20541;SDS011;10429;50.956;9.786;2022-10-17T11:16:36;4.20;;;2.00;;
20541;SDS011;10429;50.956;9.786;2022-10-17T11:19:23;3.50;;;1.87;;
20541;SDS011;10429;50.956;9.786;2022-10-17T11:24:37;5.40;;;2.10;;
20541;SDS011;10429;50.956;9.786;2022-10-17T11:27:06;4.17;;;1.77;;
20541;SDS011;10429;50.956;9.786;2022-10-17T11:29:33;3.47;;;1.90;;
20541;SDS011;10429;50.956;9.786;2022-10-17T11:32:07;5.03;;;2.03;;
20541;SDS011;10429;50.956;9.786;2022-10-17T11:34:35;3.67;;;2.17;;
20541;SDS011;10429;50.956;9.786;2022-10-17T11:37:26;7.50;;;2.23;;
20541;SDS011;10429;50.956;9.786;2022-10-17T11:39:57;2.87;;;2.00;;
20541;SDS011;10429;50.956;9.786;2022-10-17T11:42:26;3.73;;;1.90;;
20541;SDS011;10429;50.956;9.786;2022-10-17T11:44:55;4.20;;;1.90;;
20541;SDS011;10429;50.956;9.786;2022-10-17T11:47:35;2.67;;;1.93;;
20541;SDS011;10429;50.956;9.786;2022-10-17T11:54:57;5.70;;;2.50;;
20541;SDS011;10429;50.956;9.786;2022-10-17T12:02:32;2.50;;;1.80;;
20541;SDS011;10429;50.956;9.786;2022-10-17T12:07:43;4.70;;;1.97;;
20541;SDS011;10429;50.956;9.786;2022-10-17T12:12:39;3.47;;;1.73;;
20541;SDS011;10429;50.956;9.786;2022-10-17T12:17:44;4.90;;;2.00;;
20541;SDS011;10429;50.956;9.786;2022-10-17T12:22:49;3.43;;;1.80;;
20541;SDS011;10429;50.956;9.786;2022-10-17T12:25:17;2.63;;;1.87;;
20541;SDS011;10429;50.956;9.786;2022-10-17T12:27:44;4.13;;;2.00;;
20541;SDS011;10429;50.956;9.786;2022-10-17T12:35:26;4.37;;;1.70;;
20541;SDS011;10429;50.956;9.786;2022-10-17T12:43:46;3.43;;;1.87;;
20541;SDS011;10429;50.956;9.786;2022-10-17T12:45:47;3.30;;;2.00;;
20541;SDS011;10429;50.956;9.786;2022-10-17T12:56:21;4.00;;;1.87;;
20541;SDS011;10429;50.956;9.786;2022-10-17T12:58:54;2.40;;;1.90;;
20541;SDS011;10429;50.956;9.786;2022-10-17T13:01:25;2.30;;;2.10;;
20541;SDS011;10429;50.956;9.786;2022-10-17T13:03:52;2.50;;;1.70;;
20541;SDS011;10429;50.956;9.786;2022-10-17T13:06:24;4.00;;;2.00;;
20541;SDS011;10429;50.956;9.786;2022-10-17T13:08:54;4.97;;;1.80;;
20541;SDS011;10429;50.956;9.786;2022-10-17T13:11:22;1.93;;;1.43;;
20541;SDS011;10429;50.956;9.786;2022-10-17T13:13:51;2.50;;;1.70;;
20541;SDS011;10429;50.956;9.786;2022-10-17T13:16:35;4.00;;;1.90;;
20541;SDS011;10429;50.956;9.786;2022-10-17T13:19:02;3.83;;;1.87;;
20541;SDS011;10429;50.956;9.786;2022-10-17T13:21:28;3.57;;;1.73;;
20541;SDS011;10429;50.956;9.786;2022-10-17T13:23:55;2.50;;;1.73;;
20541;SDS011;10429;50.956;9.786;2022-10-17T13:26:25;5.33;;;1.80;;
20541;SDS011;10429;50.956;9.786;2022-10-17T13:29:01;2.73;;;1.60;;
20541;SDS011;10429;50.956;9.786;2022-10-17T13:31:28;4.77;;;2.10;;
20541;SDS011;10429;50.956;9.786;2022-10-17T13:33:56;4.57;;;2.17;;
20541;SDS011;10429;50.956;9.786;2022-10-17T13:36:22;2.03;;;1.93;;
20541;SDS011;10429;50.956;9.786;2022-10-17T13:38:48;4.47;;;1.57;;
20541;SDS011;10429;50.956;9.786;2022-10-17T13:41:15;5.53;;;2.07;;
20541;SDS011;10429;50.956;9.786;2022-10-17T13:43:42;3.93;;;2.10;;
20541;SDS011;10429;50.956;9.786;2022-10-17T13:46:11;4.37;;;2.10;;
20541;SDS011;10429;50.956;9.786;2022-10-17T13:48:40;3.93;;;1.80;;
20541;SDS011;10429;50.956;9.786;2022-10-17T13:51:07;5.67;;;2.10;;
20541;SDS011;10429;50.956;9.786;2022-10-17T13:56:04;6.20;;;2.20;;
20541;SDS011;10429;50.956;9.786;2022-10-17T13:58:40;4.57;;;2.10;;
20541;SDS011;10429;50.956;9.786;2022-10-17T14:01:07;5.37;;;2.00;;
20541;SDS011;10429;50.956;9.786;2022-10-17T14:03:33;2.00;;;1.73;;
20541;SDS011;10429;50.956;9.786;2022-10-17T14:06:01;3.13;;;1.60;;
20541;SDS011;10429;50.956;9.786;2022-10-17T14:08:27;3.90;;;2.20;;
20541;SDS011;10429;50.956;9.786;2022-10-17T14:10:54;5.13;;;1.97;;
20541;SDS011;10429;50.956;9.786;2022-10-17T14:13:24;4.83;;;2.00;;
20541;SDS011;10429;50.956;9.786;2022-10-17T14:15:52;2.57;;;1.87;;
20541;SDS011;10429;50.956;9.786;2022-10-17T14:18:20;3.47;;;2.13;;
20541;SDS011;10429;50.956;9.786;2022-10-17T14:20:48;4.07;;;1.90;;
20541;SDS011;10429;50.956;9.786;2022-10-17T14:23:29;2.87;;;2.00;;
20541;SDS011;10429;50.956;9.786;2022-10-17T14:29:04;7.97;;;2.10;;
20541;SDS011;10429;50.956;9.786;2022-10-17T14:31:34;4.10;;;2.23;;
20541;SDS011;10429;50.956;9.786;2022-10-17T14:34:03;4.80;;;2.20;;
20541;SDS011;10429;50.956;9.786;2022-10-17T14:36:39;2.83;;;1.90;;
20541;SDS011;10429;50.956;9.786;2022-10-17T14:39:17;4.33;;;2.13;;
20541;SDS011;10429;50.956;9.786;2022-10-17T14:41:44;5.13;;;1.90;;
20541;SDS011;10429;50.956;9.786;2022-10-17T14:46:53;3.63;;;2.10;;
20541;SDS011;10429;50.956;9.786;2022-10-17T14:49:27;5.57;;;1.90;;
20541;SDS011;10429;50.956;9.786;2022-10-17T14:54:40;4.10;;;2.17;;
20541;SDS011;10429;50.956;9.786;2022-10-17T14:57:18;4.57;;;1.97;;
20541;SDS011;10429;50.956;9.786;2022-10-17T14:59:44;5.77;;;2.23;;
20541;SDS011;10429;50.956;9.786;2022-10-17T15:02:10;4.87;;;1.87;;
20541;SDS011;10429;50.956;9.786;2022-10-17T15:04:36;5.43;;;2.30;;
20541;SDS011;10429;50.956;9.786;2022-10-17T15:07:03;2.83;;;2.03;;
20541;SDS011;10429;50.956;9.786;2022-10-17T15:09:29;3.93;;;2.00;;
20541;SDS011;10429;50.956;9.786;2022-10-17T15:11:56;4.90;;;2.20;;
20541;SDS011;10429;50.956;9.786;2022-10-17T15:14:25;7.90;;;2.30;;
20541;SDS011;10429;50.956;9.786;2022-10-17T15:16:51;4.33;;;2.20;;
20541;SDS011;10429;50.956;9.786;2022-10-17T15:19:17;4.60;;;2.37;;
20541;SDS011;10429;50.956;9.786;2022-10-17T15:21:43;3.23;;;2.33;;
20541;SDS011;10429;50.956;9.786;2022-10-17T15:24:09;4.83;;;2.13;;
20541;SDS011;10429;50.956;9.786;2022-10-17T15:26:35;5.47;;;2.73;;
20541;SDS011;10429;50.956;9.786;2022-10-17T15:29:01;4.47;;;2.40;;
20541;SDS011;10429;50.956;9.786;2022-10-17T15:31:28;7.47;;;2.50;;
20541;SDS011;10429;50.956;9.786;2022-10-17T15:33:55;4.10;;;2.47;;
20541;SDS011;10429;50.956;9.786;2022-10-17T15:38:48;4.07;;;2.53;;
20541;SDS011;10429;50.956;9.786;2022-10-17T15:41:14;6.73;;;2.27;;
20541;SDS011;10429;50.956;9.786;2022-10-17T15:43:40;5.80;;;2.47;;
20541;SDS011;10429;50.956;9.786;2022-10-17T15:46:13;6.47;;;3.50;;
20541;SDS011;10429;50.956;9.786;2022-10-17T15:48:39;7.13;;;2.97;;
20541;SDS011;10429;50.956;9.786;2022-10-17T15:51:06;6.77;;;3.20;;
20541;SDS011;10429;50.956;9.786;2022-10-17T15:53:32;16.43;;;8.13;;
20541;SDS011;10429;50.956;9.786;2022-10-17T15:55:58;7.97;;;2.80;;
20541;SDS011;10429;50.956;9.786;2022-10-17T15:58:24;5.00;;;4.30;;
20541;SDS011;10429;50.956;9.786;2022-10-17T16:00:52;6.20;;;2.60;;
20541;SDS011;10429;50.956;9.786;2022-10-17T16:03:18;4.70;;;2.53;;
20541;SDS011;10429;50.956;9.786;2022-10-17T16:05:44;5.03;;;2.93;;
20541;SDS011;10429;50.956;9.786;2022-10-17T16:08:10;5.17;;;3.83;;
20541;SDS011;10429;50.956;9.786;2022-10-17T16:10:38;5.47;;;4.17;;
20541;SDS011;10429;50.956;9.786;2022-10-17T16:13:04;6.80;;;3.60;;
20541;SDS011;10429;50.956;9.786;2022-10-17T16:15:30;5.57;;;4.63;;
20541;SDS011;10429;50.956;9.786;2022-10-17T16:17:59;5.17;;;3.63;;
20541;SDS011;10429;50.956;9.786;2022-10-17T16:20:25;9.17;;;3.30;;
20541;SDS011;10429;50.956;9.786;2022-10-17T16:22:51;10.27;;;2.90;;
20541;SDS011;10429;50.956;9.786;2022-10-17T16:25:25;9.23;;;3.17;;
20541;SDS011;10429;50.956;9.786;2022-10-17T16:27:52;12.80;;;3.37;;
20541;SDS011;10429;50.956;9.786;2022-10-17T16:30:19;7.50;;;3.40;;
20541;SDS011;10429;50.956;9.786;2022-10-17T16:32:45;14.37;;;3.90;;
20541;SDS011;10429;50.956;9.786;2022-10-17T16:35:18;9.70;;;3.27;;
20541;SDS011;10429;50.956;9.786;2022-10-17T16:37:44;12.60;;;4.93;;
20541;SDS011;10429;50.956;9.786;2022-10-17T16:40:14;14.60;;;6.40;;
20541;SDS011;10429;50.956;9.786;2022-10-17T16:42:40;13.57;;;5.27;;
20541;SDS011;10429;50.956;9.786;2022-10-17T16:45:06;9.93;;;5.30;;
20541;SDS011;10429;50.956;9.786;2022-10-17T16:47:33;14.83;;;6.37;;
20541;SDS011;10429;50.956;9.786;2022-10-17T16:49:59;11.70;;;5.73;;
20541;SDS011;10429;50.956;9.786;2022-10-17T16:52:25;11.77;;;5.77;;
20541;SDS011;10429;50.956;9.786;2022-10-17T16:54:51;17.27;;;7.00;;
20541;SDS011;10429;50.956;9.786;2022-10-17T16:57:17;25.80;;;11.10;;
20541;SDS011;10429;50.956;9.786;2022-10-17T16:59:43;19.47;;;8.50;;